UUMO 020430Z 11003MPS 6000 NSC M11/M13 Q1041 R07/810360 NOSIG RMK QFE766/1021
QNH:(hPa/inHg/mmHg)1041 / 30.74 / 781
QFE:(hPa/inHg/mmHg)1020 / 30.12 / 765
Temperature-11
Dew Point-13
Visibility6000
Weather
Cloud Cover
Transition Height0 m./600 ft.
Transition LevelFL20
SQUAWK